Patna Airport
VEPT : now visible

Airfield :











YOU CAN JOIN US ON...

 
LOGIN :

Register | Disclaimer

   EN    FR    IT 

 









Legend :    VFR   Marginal VFR   IFR   Intensive IFR   Very Intensive IFR
Visi :
Ceiling :
>= 8 km
>= 3000ft
5 to 8 km
1000 to 3000 ft
1500m to 5 km
500 to 1000 ft
800 to 1500m
200 to 500 ft
< 800m
< 200 ft
Symbols :   Thunderstorms  Fog  Heavy snow  Heavy precipitations  Wind > 20 kt






- Airport Elevation : 170 ft
- IATA code : PAT


VEPT - Patna

CURRENT METAR :
  • 151000Z 00000KT 2000 BR SCT018 BKN100 20/18 Q1016 NOSIG

EXPIRED METARs :
  • 150930Z 00000KT 2000 BR SCT018 BKN100 20/18 Q1016 NOSIG
  • 150900Z 00000KT 1800 BR SCT018 BKN100 19/18 Q1016 NOSIG
  • 150830Z 00000KT 1800 BR SCT018 BKN100 19/18 Q1016 NOSIG
  • 150800Z 27003KT 1800 BR SCT018 BKN100 19/18 Q1017 NOSIG

TAF TAF VEPT
Valid from the 15 at 09:00 until the 15 at 18:00 UTC


150800Z 1509/1518 23002KT 1800 FU SCT018 BKN100
BECMG 1515/1517 2000 HZ



MET'MAP, your aeronautical weather chart ! - Copyright ORBIFLY December 2007 - Disclaimer

ORBIFLY MET'MAP TEAM :

Programming & Development : Alexandra Zaïnal
Concept & original design : Baudouin d'Aumeries
Assistance for programming : Marc-Olivier Méhu
Technical & hardware support : Manuel Goepfert

Contact : metmap@orbifly.com




SOURCES & CREDITS :

   NOAA       Earth
Advisory